East Harling, United Kingdom
Current Conditions -  °F | °C
As of 10:58 PM on Sunday 21 Dec 2014 (Local Time) from EGUL Reporting Station
Overcast Overcast  
Wind Chill: 11°   Ceiling: 1600
Heat Index: 11°   Visibility: 6mi
Dew Point: 11°   Wind: 21mph
Humidity: 100%   Direction: 230°SW
Pressure: 30.02"   Gusts: 30mph
Location:  52.44°N, 0.93°E
Report Text: EGUL 212258Z AUTO 23018G26KT 9999 OVC016 11/11 A3002 RMK AO2 PK WND 22029/45 SLP169 T01140114
Loading
Personal Weather Stations






























Interactive Weather Map New forecast layout! Learn more

10-Day Weather Forecast

Advertisements
Track Severe Weather on mobile